Terminal Aerodrome Forecast
Issued by NWS

Current Version | Previous Version | Text Only | Print | Product List | Glossary On
Versions: 1 2 3 4 5 6 7 8 9 10 11 12 13 14 15 16 17 18 19 20 21 22 23 24 25 26 27 28 29 30 31 32
189
FTUS41 KBOX 211124
TAFHYA
TAF
KHYA 211124Z 2112/2212 18005KT P6SM OVC012
     FM211800 23010KT P6SM BKN008
     FM220000 24010KT P6SM SCT250
     FM220600 27005KT P6SM BKN003
     FM220900 VRB03KT 3SM BR BKN003=

USA.gov is the U.S. government's official web portal to all federal, state and local government web resources and services.